Time;durP1;ratioP1;P1;durP2;ratioP2;P2;SDS_P1;SDS_P2;PMS_P1;PMS_P2;Temp;Humidity;BMP_temperature;BMP_pressure;BME280_temperature;BME280_humidity;BME280_pressure;Samples;Min_cycle;Max_cycle;Signal;HPM_P1;HPM_P2
2023/01/02 00:01:37;;;;;;;23.70;5.32;;;9.10;99.90;;;;;;4976652;28;20059;-69
2023/01/02 00:04:03;;;;;;;24.58;6.65;;;9.10;99.90;;;;;;4975647;28;20019;-69
2023/01/02 00:06:32;;;;;;;30.70;7.78;;;9.20;99.90;;;;;;4976185;28;20035;-69
2023/01/02 00:08:58;;;;;;;35.45;6.22;;;9.20;99.90;;;;;;4975181;28;20051;-69
2023/01/02 00:11:23;;;;;;;27.88;6.63;;;9.20;99.90;;;;;;4977287;28;20065;-68
2023/01/02 00:13:49;;;;;;;29.63;6.95;;;9.10;99.90;;;;;;4976301;28;20023;-69
2023/01/02 00:16:14;;;;;;;27.83;8.43;;;9.10;99.90;;;;;;4976402;28;20033;-69
2023/01/02 00:18:40;;;;;;;23.80;7.03;;;9.10;99.90;;;;;;4976955;28;20090;-69
2023/01/02 00:21:06;;;;;;;24.88;7.22;;;9.20;99.90;;;;;;4977171;28;20027;-68
2023/01/02 00:23:31;;;;;;;34.47;6.85;;;9.20;99.90;;;;;;4976238;28;20042;-69
2023/01/02 00:25:57;;;;;;;29.58;8.60;;;9.20;99.90;;;;;;4975600;28;20022;-69
2023/01/02 00:28:23;;;;;;;32.40;8.80;;;9.20;99.90;;;;;;4976751;28;20031;-68
2023/01/02 00:30:48;;;;;;;32.45;9.43;;;9.20;99.90;;;;;;4975190;28;20030;-68
2023/01/02 00:33:14;;;;;;;26.27;7.65;;;9.10;99.90;;;;;;4976322;28;20053;-69
2023/01/02 00:35:40;;;;;;;36.28;9.50;;;9.10;99.90;;;;;;4974534;28;20086;-69
2023/01/02 00:38:06;;;;;;;25.13;7.35;;;9.10;99.90;;;;;;4976615;28;20026;-69
2023/01/02 00:40:31;;;;;;;27.88;7.32;;;9.00;99.90;;;;;;4975969;28;20030;-68
2023/01/02 00:42:57;;;;;;;35.03;9.77;;;9.00;99.90;;;;;;4976226;28;20050;-68
2023/01/02 00:45:22;;;;;;;26.55;7.63;;;9.00;99.90;;;;;;4975083;28;20035;-69
2023/01/02 00:47:48;;;;;;;25.20;7.75;;;9.00;99.90;;;;;;4975776;28;20514;-69
2023/01/02 00:50:14;;;;;;;21.25;7.47;;;8.90;99.90;;;;;;4975912;28;20066;-69
2023/01/02 00:52:39;;;;;;;33.15;7.10;;;8.90;99.90;;;;;;4975713;28;20030;-69
2023/01/02 00:55:05;;;;;;;25.50;8.40;;;8.90;99.90;;;;;;4975511;28;20026;-68
2023/01/02 00:57:30;;;;;;;20.60;7.38;;;8.90;99.90;;;;;;4975736;28;20054;-68
2023/01/02 00:59:56;;;;;;;19.63;7.43;;;8.90;99.90;;;;;;4975378;28;20106;-69
2023/01/02 01:02:21;;;;;;;28.90;7.90;;;8.80;99.90;;;;;;4975978;28;20033;-69
2023/01/02 01:04:47;;;;;;;27.35;7.57;;;8.80;99.90;;;;;;4975693;28;20038;-68
2023/01/02 01:07:13;;;;;;;30.52;7.75;;;8.80;99.90;;;;;;4975776;28;20033;-68
2023/01/02 01:09:38;;;;;;;28.20;7.88;;;8.80;99.90;;;;;;4975703;28;20041;-69
2023/01/02 01:12:04;;;;;;;19.20;6.85;;;8.70;99.90;;;;;;4975291;28;20039;-69
2023/01/02 01:14:29;;;;;;;31.98;8.30;;;8.70;99.90;;;;;;4975020;28;20042;-69
2023/01/02 01:16:55;;;;;;;33.25;8.50;;;8.60;99.90;;;;;;4975303;28;20042;-69
2023/01/02 01:19:20;;;;;;;38.13;8.55;;;8.60;99.90;;;;;;4975198;28;20035;-68
2023/01/02 01:21:46;;;;;;;28.08;8.27;;;8.60;99.90;;;;;;4975195;28;20031;-68
2023/01/02 01:24:12;;;;;;;25.10;8.05;;;8.60;99.90;;;;;;4974880;28;20062;-69
2023/01/02 01:26:37;;;;;;;19.48;7.70;;;8.60;99.90;;;;;;4975163;28;20023;-67
2023/01/02 01:29:03;;;;;;;21.83;7.40;;;8.50;99.90;;;;;;4974718;28;20397;-67
2023/01/02 01:31:28;;;;;;;32.55;7.97;;;8.50;99.90;;;;;;4975059;28;20497;-66
2023/01/02 01:33:54;;;;;;;25.27;7.50;;;8.50;99.90;;;;;;4974832;28;20061;-68
2023/01/02 01:36:22;;;;;;;32.05;8.60;;;8.60;99.90;;;;;;4975050;28;20022;-69
2023/01/02 01:38:48;;;;;;;35.95;9.60;;;8.60;99.90;;;;;;4973846;28;20101;-69
2023/01/02 01:41:17;;;;;;;23.27;9.07;;;8.60;99.90;;;;;;4974443;28;20031;-69
2023/01/02 01:43:45;;;;;;;23.10;8.27;;;8.60;99.90;;;;;;4974778;28;20059;-69
2023/01/02 01:46:20;;;;;;;25.35;9.27;;;8.60;99.90;;;;;;4974879;28;20035;-68
2023/01/02 01:48:47;;;;;;;25.50;7.72;;;8.60;99.90;;;;;;4974601;28;20027;-69
2023/01/02 01:51:13;;;;;;;27.63;8.75;;;8.60;99.90;;;;;;4974709;28;20026;-69
2023/01/02 01:53:40;;;;;;;20.25;8.35;;;8.60;99.90;;;;;;4974533;28;20034;-69
2023/01/02 01:56:07;;;;;;;19.23;7.60;;;8.60;99.90;;;;;;4974047;28;20383;-69
2023/01/02 01:58:41;;;;;;;24.08;7.70;;;8.60;99.90;;;;;;4974609;28;20031;-69
2023/01/02 02:01:09;;;;;;;25.27;7.03;;;8.60;99.90;;;;;;4974606;28;20131;-69
2023/01/02 02:03:36;;;;;;;26.58;7.78;;;8.60;99.90;;;;;;4974254;28;20502;-69
2023/01/02 02:06:02;;;;;;;15.48;6.70;;;8.50;99.90;;;;;;4974309;28;20030;-67
2023/01/02 02:08:50;;;;;;;20.77;8.18;;;8.50;99.90;;;;;;4973640;28;20106;-69
2023/01/02 02:11:16;;;;;;;20.13;6.57;;;8.50;99.90;;;;;;4955453;28;20032;-69
2023/01/02 02:13:42;;;;;;;18.05;7.70;;;8.50;99.90;;;;;;4971000;28;20030;-69
2023/01/02 02:16:14;;;;;;;25.50;7.70;;;8.40;99.90;;;;;;4974373;28;20045;-69
2023/01/02 02:19:13;;;;;;;35.40;9.20;;;8.40;99.90;;;;;;4973849;28;20503;-69
2023/01/02 02:21:53;;;;;;;32.35;8.98;;;8.40;99.90;;;;;;4956561;28;20031;-69
2023/01/02 02:24:43;;;;;;;24.13;8.02;;;8.40;99.90;;;;;;4973841;28;20029;-69
2023/01/02 02:27:49;;;;;;;26.27;8.05;;;8.40;99.90;;;;;;4973790;28;20019;-69
2023/01/02 02:30:37;;;;;;;18.77;7.25;;;8.30;99.90;;;;;;4974498;28;20109;-69
2023/01/02 02:33:21;;;;;;;23.80;8.32;;;8.40;99.90;;;;;;4973814;28;20034;-69
2023/01/02 02:36:12;;;;;;;30.02;8.43;;;8.40;99.90;;;;;;4971749;28;20030;-69
2023/01/02 02:39:15;;;;;;;26.65;9.27;;;8.40;99.90;;;;;;4972839;28;20030;-69
2023/01/02 02:41:50;;;;;;;27.40;9.45;;;8.30;99.90;;;;;;4973496;28;20446;-69
2023/01/02 02:44:24;;;;;;;22.48;8.48;;;8.30;99.90;;;;;;4971314;28;20118;-69
2023/01/02 02:46:55;;;;;;;21.85;8.27;;;8.30;99.90;;;;;;4973452;28;20027;-69
2023/01/02 02:49:39;;;;;;;27.73;9.25;;;8.30;99.90;;;;;;4974458;28;20027;-69
2023/01/02 02:52:21;;;;;;;21.30;8.50;;;8.30;99.90;;;;;;4976499;28;20494;-69
2023/01/02 02:55:16;;;;;;;22.50;8.57;;;8.30;99.90;;;;;;4977360;28;20031;-69
2023/01/02 02:57:44;;;;;;;18.23;7.60;;;8.30;99.90;;;;;;4970746;28;20113;-69
2023/01/02 03:00:13;;;;;;;21.40;7.35;;;8.30;99.90;;;;;;4976625;28;20027;-69
2023/01/02 03:02:39;;;;;;;24.48;8.35;;;8.30;99.90;;;;;;4975468;28;20434;-69
2023/01/02 03:05:09;;;;;;;18.10;6.57;;;8.30;99.90;;;;;;4965236;28;20094;-69
2023/01/02 03:08:00;;;;;;;15.10;6.65;;;8.30;99.90;;;;;;4970584;28;20035;-69
2023/01/02 03:10:48;;;;;;;15.43;5.32;;;8.20;99.90;;;;;;4978013;28;20034;-68
2023/01/02 03:13:28;;;;;;;15.15;6.30;;;8.30;99.90;;;;;;4977849;28;20035;-69
2023/01/02 03:16:12;;;;;;;20.70;6.53;;;8.30;99.90;;;;;;4978162;28;20454;-69
2023/01/02 03:18:52;;;;;;;12.48;6.10;;;8.30;99.90;;;;;;4978442;28;20045;-69
2023/01/02 03:21:41;;;;;;;11.93;5.78;;;8.20;99.90;;;;;;4977417;28;20023;-69
2023/01/02 03:24:13;;;;;;;12.85;5.95;;;8.30;99.90;;;;;;4958379;28;20479;-69
2023/01/02 03:26:42;;;;;;;17.92;6.10;;;8.30;99.90;;;;;;4958676;28;20511;-68
2023/01/02 03:29:15;;;;;;;23.25;7.53;;;8.30;99.90;;;;;;4966171;28;20019;-69
2023/01/02 03:31:45;;;;;;;16.33;6.77;;;8.30;99.90;;;;;;4977440;28;20026;-69
2023/01/02 03:34:15;;;;;;;15.98;6.40;;;8.30;99.90;;;;;;4976936;28;20117;-69
2023/01/02 03:36:44;;;;;;;14.45;6.35;;;8.30;99.90;;;;;;4977242;28;20109;-69
2023/01/02 03:39:16;;;;;;;17.23;6.03;;;8.30;99.90;;;;;;4977024;28;20027;-69
2023/01/02 03:41:57;;;;;;;14.75;6.32;;;8.30;99.90;;;;;;4977126;28;20106;-69
2023/01/02 03:44:29;;;;;;;15.30;6.07;;;8.30;99.90;;;;;;4965263;28;20540;-69
2023/01/02 03:47:11;;;;;;;21.95;5.60;;;8.30;99.90;;;;;;4977383;28;20031;-69
2023/01/02 03:49:42;;;;;;;10.90;6.00;;;8.30;99.90;;;;;;4976655;28;20050;-69
2023/01/02 03:52:07;;;;;;;12.15;5.50;;;8.30;99.90;;;;;;4977195;28;20030;-69
2023/01/02 03:54:33;;;;;;;17.40;6.00;;;8.30;99.90;;;;;;4975965;28;20019;-68
2023/01/02 03:57:03;;;;;;;22.50;5.63;;;8.30;99.90;;;;;;4977110;28;20038;-68
2023/01/02 03:59:34;;;;;;;12.45;6.05;;;8.30;99.90;;;;;;4976795;28;20482;-69
2023/01/02 04:02:22;;;;;;;19.70;7.28;;;8.30;99.90;;;;;;4975907;28;20035;-69
2023/01/02 04:05:03;;;;;;;21.67;8.40;;;8.30;99.90;;;;;;4976295;28;20112;-69
2023/01/02 04:07:43;;;;;;;12.52;6.47;;;8.30;99.90;;;;;;4977217;28;20085;-68
2023/01/02 04:10:11;;;;;;;14.45;7.47;;;8.30;99.90;;;;;;4977090;28;20031;-69
2023/01/02 04:12:39;;;;;;;12.52;6.43;;;8.40;99.90;;;;;;4977012;28;20113;-69
2023/01/02 04:15:08;;;;;;;24.00;8.20;;;8.40;99.90;;;;;;4977624;28;20465;-67
2023/01/02 04:17:48;;;;;;;24.90;8.73;;;8.40;99.90;;;;;;4976865;28;20379;-67
2023/01/02 04:20:22;;;;;;;15.40;8.07;;;8.40;99.90;;;;;;4976543;28;20057;-68
2023/01/02 04:22:53;;;;;;;;;;;8.40;99.90;;;;;;4976310;28;20026;-69
2023/01/02 04:25:20;;;;;;;16.85;9.40;;;8.40;99.90;;;;;;4983355;23;19922;-69
2023/01/02 04:27:54;;;;;;;25.05;10.23;;;8.40;99.90;;;;;;4976761;28;20026;-69
2023/01/02 04:30:20;;;;;;;18.70;8.70;;;8.40;99.90;;;;;;4976155;28;20376;-69
2023/01/02 04:32:46;;;;;;;16.38;8.43;;;8.40;99.90;;;;;;4975983;28;20097;-69
2023/01/02 04:35:19;;;;;;;25.65;10.52;;;8.40;99.90;;;;;;4976496;28;20029;-68
2023/01/02 04:37:46;;;;;;;18.90;8.25;;;8.50;99.90;;;;;;4976694;28;20026;-68
2023/01/02 04:40:26;;;;;;;17.25;8.73;;;8.50;99.90;;;;;;4976440;28;20057;-68
2023/01/02 04:42:51;;;;;;;15.40;7.95;;;8.50;99.90;;;;;;4976074;28;20042;-69
2023/01/02 04:45:17;;;;;;;21.63;10.27;;;8.50;99.90;;;;;;4975884;28;20030;-69
2023/01/02 04:47:43;;;;;;;15.48;8.98;;;8.50;99.90;;;;;;4976443;28;20034;-68
2023/01/02 04:50:10;;;;;;;18.48;9.70;;;8.50;99.90;;;;;;4976020;28;20035;-69
2023/01/02 04:52:35;;;;;;;18.13;10.05;;;8.50;99.90;;;;;;4975630;28;20027;-69
2023/01/02 04:55:01;;;;;;;14.93;9.20;;;8.50;99.90;;;;;;4975991;28;20057;-69
2023/01/02 04:57:26;;;;;;;22.13;9.70;;;8.50;99.90;;;;;;4975894;28;20030;-69
2023/01/02 04:59:52;;;;;;;17.60;10.68;;;8.50;99.90;;;;;;4975583;28;20031;-69
2023/01/02 05:02:17;;;;;;;16.67;8.68;;;8.50;99.90;;;;;;4976315;28;20501;-69
2023/01/02 05:04:45;;;;;;;13.77;8.90;;;8.50;99.90;;;;;;4975898;28;20026;-69
2023/01/02 05:07:10;;;;;;;13.05;8.65;;;8.50;99.90;;;;;;4956568;28;20159;-69
2023/01/02 05:09:36;;;;;;;14.23;8.75;;;8.50;99.90;;;;;;4969152;28;20109;-69
2023/01/02 05:12:02;;;;;;;15.13;9.43;;;8.50;99.90;;;;;;4975070;28;20109;-70
2023/01/02 05:14:29;;;;;;;16.45;8.57;;;8.60;99.90;;;;;;4975348;28;20583;-68
2023/01/02 05:16:55;;;;;;;14.57;8.85;;;8.60;99.90;;;;;;4975713;28;20027;-69
2023/01/02 05:19:20;;;;;;;17.13;9.80;;;8.60;99.90;;;;;;4975577;28;20035;-69
2023/01/02 05:24:30;;;;;;;18.10;10.07;;;8.60;99.90;;;;;;4975529;28;20450;-69
2023/01/02 05:26:56;;;;;;;12.93;9.02;;;8.60;99.90;;;;;;4975616;28;20022;-69
2023/01/02 05:29:23;;;;;;;17.00;9.60;;;8.60;99.90;;;;;;4975463;28;20395;-69
2023/01/02 05:31:49;;;;;;;18.00;9.00;;;8.60;99.90;;;;;;4975253;28;20030;-69
2023/01/02 05:34:15;;;;;;;18.90;9.80;;;8.60;99.90;;;;;;4975300;28;20022;-69
2023/01/02 05:36:41;;;;;;;19.45;9.90;;;8.60;99.90;;;;;;4975600;28;20038;-69
2023/01/02 05:39:08;;;;;;;16.92;9.25;;;8.60;99.90;;;;;;4973666;28;20019;-69
2023/01/02 05:41:33;;;;;;;18.30;10.02;;;8.60;99.90;;;;;;4974680;28;20018;-69
2023/01/02 05:43:59;;;;;;;19.90;10.77;;;8.60;99.90;;;;;;4975484;28;20030;-69
2023/01/02 05:46:24;;;;;;;15.68;10.25;;;8.60;99.90;;;;;;4974692;28;20019;-69
2023/01/02 05:48:50;;;;;;;19.35;10.60;;;8.60;99.90;;;;;;4975219;28;20023;-69
2023/01/02 05:51:17;;;;;;;20.83;11.95;;;8.60;99.90;;;;;;4975247;28;20031;-69
2023/01/02 05:53:42;;;;;;;20.05;11.88;;;8.70;99.90;;;;;;4974854;28;20529;-69
2023/01/02 05:56:13;;;;;;;21.38;12.05;;;8.70;99.90;;;;;;4974757;28;20030;-69
2023/01/02 05:58:41;;;;;;;21.15;12.80;;;8.70;99.90;;;;;;4990171;28;20027;-69
2023/01/02 06:01:28;;;;;;;23.08;12.90;;;8.70;99.90;;;;;;4975103;28;20018;-70
2023/01/02 06:03:56;;;;;;;21.90;12.35;;;8.70;99.90;;;;;;4973340;28;20038;-69
2023/01/02 06:06:37;;;;;;;21.65;12.55;;;8.70;99.90;;;;;;4975042;28;20177;-69
2023/01/02 06:09:04;;;;;;;22.15;13.25;;;8.70;99.90;;;;;;4969841;28;20517;-70
2023/01/02 06:11:30;;;;;;;17.30;13.10;;;8.70;99.90;;;;;;4975045;28;20035;-68
2023/01/02 06:13:56;;;;;;;24.23;13.55;;;8.80;99.90;;;;;;4973147;28;20031;-69
2023/01/02 06:16:22;;;;;;;22.38;14.73;;;8.80;99.90;;;;;;4974883;28;20022;-69
2023/01/02 06:18:49;;;;;;;24.17;15.13;;;8.80;99.90;;;;;;4974653;28;20031;-69
2023/01/02 06:21:16;;;;;;;21.35;14.52;;;8.80;99.90;;;;;;4974647;28;20062;-69
2023/01/02 06:23:43;;;;;;;23.83;15.50;;;8.90;99.90;;;;;;4974391;28;20457;-69
2023/01/02 06:26:18;;;;;;;27.15;16.92;;;9.00;99.90;;;;;;4977379;28;20089;-69
2023/01/02 06:28:45;;;;;;;51.25;21.55;;;9.00;99.90;;;;;;4978940;28;20398;-68
2023/01/02 06:31:14;;;;;;;39.63;23.55;;;9.10;99.90;;;;;;4979028;28;20035;-68
2023/01/02 06:33:40;;;;;;;48.30;24.88;;;9.20;99.90;;;;;;4978422;28;20026;-69
2023/01/02 06:36:07;;;;;;;55.85;29.52;;;9.30;99.90;;;;;;4978549;28;20391;-69
2023/01/02 06:38:33;;;;;;;74.40;33.55;;;9.40;99.90;;;;;;4978330;28;20031;-69
2023/01/02 06:41:00;;;;;;;68.68;35.10;;;9.40;99.90;;;;;;4978482;28;20019;-69
2023/01/02 06:43:27;;;;;;;56.75;33.72;;;9.50;99.90;;;;;;4963377;28;20035;-69
2023/01/02 06:45:55;;;;;;;79.57;39.65;;;9.50;99.90;;;;;;4961778;28;20379;-69
2023/01/02 06:48:21;;;;;;;68.70;36.78;;;9.60;99.90;;;;;;4978328;28;20046;-69
2023/01/02 06:50:46;;;;;;;64.63;37.97;;;9.60;99.90;;;;;;4978205;28;20031;-70
2023/01/02 06:53:12;;;;;;;68.88;38.92;;;9.60;99.90;;;;;;4978093;28;20030;-69
2023/01/02 06:55:38;;;;;;;59.80;35.17;;;9.70;99.90;;;;;;4976871;28;20073;-68
2023/01/02 06:58:03;;;;;;;65.47;37.97;;;9.70;99.90;;;;;;4978272;28;20026;-68
2023/01/02 07:00:30;;;;;;;69.38;36.65;;;9.70;99.90;;;;;;4977998;28;20027;-69
2023/01/02 07:02:56;;;;;;;61.40;35.67;;;9.70;99.90;;;;;;4978140;28;20363;-70
2023/01/02 07:05:24;;;;;;;68.20;36.78;;;9.80;99.90;;;;;;4977813;28;20037;-68
2023/01/02 07:07:50;;;;;;;61.67;36.92;;;9.80;99.90;;;;;;4976951;28;20402;-68
2023/01/02 07:10:15;;;;;;;65.82;35.25;;;9.80;99.90;;;;;;4977961;28;20109;-69
2023/01/02 07:12:41;;;;;;;72.88;40.10;;;9.80;99.90;;;;;;4978028;28;20061;-68
2023/01/02 07:15:06;;;;;;;70.38;37.33;;;9.80;99.90;;;;;;4969734;28;20034;-69
2023/01/02 07:17:33;;;;;;;74.50;41.55;;;9.80;99.90;;;;;;4977475;28;20019;-69
2023/01/02 07:19:59;;;;;;;83.10;42.15;;;9.80;99.90;;;;;;4977229;28;20035;-69
2023/01/02 07:22:25;;;;;;;77.35;38.97;;;9.90;99.90;;;;;;4971346;28;20154;-69
2023/01/02 07:24:51;;;;;;;62.85;36.78;;;9.90;99.90;;;;;;4957937;28;20325;-69
2023/01/02 07:27:16;;;;;;;72.45;36.28;;;9.90;99.90;;;;;;4958588;28;20028;-70
2023/01/02 07:29:42;;;;;;;80.70;41.25;;;9.90;99.90;;;;;;4976105;28;20485;-69
2023/01/02 07:32:07;;;;;;;86.80;37.80;;;9.90;99.90;;;;;;4977214;28;20034;-69
2023/01/02 07:34:33;;;;;;;75.78;36.33;;;9.90;99.90;;;;;;4976936;28;20026;-69
2023/01/02 07:36:58;;;;;;;74.82;38.03;;;9.90;99.90;;;;;;4975499;28;20074;-69
2023/01/02 07:39:24;;;;;;;81.80;39.28;;;10.00;99.90;;;;;;4977151;28;20053;-69
2023/01/02 07:41:49;;;;;;;94.82;40.90;;;10.00;99.90;;;;;;4975590;28;20098;-69
2023/01/02 07:44:15;;;;;;;86.80;36.83;;;10.10;99.90;;;;;;4966502;28;20105;-69
2023/01/02 07:46:40;;;;;;;80.63;36.88;;;10.10;99.90;;;;;;4976801;28;20031;-69
2023/01/02 07:49:06;;;;;;;82.32;37.42;;;10.10;99.90;;;;;;4971978;28;20034;-69
2023/01/02 07:51:32;;;;;;;75.30;37.42;;;10.10;99.90;;;;;;4976628;28;20093;-69
2023/01/02 07:53:58;;;;;;;86.43;38.72;;;10.10;99.90;;;;;;4976889;28;20113;-69
2023/01/02 07:56:24;;;;;;;94.00;40.05;;;10.10;99.90;;;;;;4976440;28;20518;-69
2023/01/02 07:58:50;;;;;;;75.38;37.50;;;10.10;99.90;;;;;;4976740;28;20398;-69
2023/01/02 08:01:16;;;;;;;85.72;37.17;;;10.10;99.90;;;;;;4976521;28;20038;-69
2023/01/02 08:03:42;;;;;;;77.78;38.17;;;10.10;99.90;;;;;;4960916;28;20034;-69
2023/01/02 08:06:10;;;;;;;86.85;37.55;;;10.10;99.90;;;;;;4974544;28;20042;-69
2023/01/02 08:08:35;;;;;;;84.63;36.05;;;10.10;99.90;;;;;;4977070;28;20023;-68
2023/01/02 08:11:12;;;;;;;88.45;39.95;;;10.10;99.90;;;;;;4975208;28;20039;-69
2023/01/02 08:13:38;;;;;;;75.07;39.28;;;10.10;99.90;;;;;;4976337;28;20035;-69
2023/01/02 08:16:15;;;;;;;82.82;39.55;;;10.10;99.90;;;;;;4976182;28;20023;-70
2023/01/02 08:18:41;;;;;;;79.53;37.50;;;10.00;99.90;;;;;;4977090;28;20038;-69
2023/01/02 08:21:08;;;;;;;73.88;35.67;;;10.00;99.90;;;;;;4976553;28;20022;-69
2023/01/02 08:23:33;;;;;;;70.85;35.17;;;9.90;99.90;;;;;;4976672;28;20038;-69
2023/01/02 08:26:01;;;;;;;72.75;35.20;;;9.90;99.90;;;;;;4976406;28;20038;-68
2023/01/02 08:28:27;;;;;;;71.25;31.58;;;9.90;99.90;;;;;;4974386;28;20039;-69
2023/01/02 08:30:52;;;;;;;66.40;32.38;;;9.90;99.90;;;;;;4977008;28;20073;-69
2023/01/02 08:33:18;;;;;;;62.03;31.27;;;9.80;99.90;;;;;;4974992;28;20031;-69
2023/01/02 08:35:43;;;;;;;65.18;32.05;;;9.80;99.90;;;;;;4974626;28;20030;-71
2023/01/02 08:38:10;;;;;;;58.65;29.30;;;9.80;99.90;;;;;;4975605;28;20033;-69
2023/01/02 08:40:35;;;;;;;65.97;29.42;;;9.70;99.90;;;;;;4973732;28;20101;-69
2023/01/02 08:43:01;;;;;;;52.17;27.77;;;9.70;99.90;;;;;;4973813;28;20106;-69
2023/01/02 08:45:27;;;;;;;53.67;26.92;;;9.60;99.90;;;;;;4976276;28;20061;-69
2023/01/02 08:47:52;;;;;;;55.08;27.95;;;9.60;99.90;;;;;;4975663;28;20119;-69
2023/01/02 08:50:18;;;;;;;55.42;26.55;;;9.50;99.90;;;;;;4976527;28;20058;-69
2023/01/02 08:52:44;;;;;;;56.10;26.77;;;9.40;99.90;;;;;;4975056;28;20038;-70
2023/01/02 08:55:09;;;;;;;73.35;30.20;;;9.40;99.90;;;;;;4975652;28;20035;-69
2023/01/02 08:57:35;;;;;;;88.85;34.15;;;9.30;99.90;;;;;;4975408;28;20035;-69
2023/01/02 09:00:02;;;;;;;105.20;34.58;;;9.30;99.90;;;;;;4975959;28;20431;-69
2023/01/02 09:02:27;;;;;;;124.47;34.53;;;9.30;99.90;;;;;;4975635;28;20035;-69
2023/01/02 09:04:53;;;;;;;157.90;37.40;;;9.20;99.90;;;;;;4970577;28;20054;-69
2023/01/02 09:07:18;;;;;;;188.98;34.83;;;9.20;99.90;;;;;;4975815;28;20039;-68
2023/01/02 09:09:44;;;;;;;140.50;35.60;;;9.10;99.90;;;;;;4975258;28;20035;-69
2023/01/02 09:12:09;;;;;;;230.93;38.22;;;9.10;99.90;;;;;;4970568;28;20035;-70
2023/01/02 09:14:35;;;;;;;97.75;34.75;;;9.00;99.90;;;;;;4974407;28;20038;-69
2023/01/02 09:17:00;;;;;;;136.93;35.75;;;9.00;99.90;;;;;;4972945;28;20188;-69
2023/01/02 09:19:26;;;;;;;105.88;37.50;;;9.00;99.90;;;;;;4973829;28;20089;-69
2023/01/02 09:21:52;;;;;;;88.38;31.83;;;9.00;99.90;;;;;;4973710;28;20502;-70
2023/01/02 09:24:17;;;;;;;117.85;35.72;;;9.00;99.90;;;;;;4965864;28;20042;-69
2023/01/02 09:26:43;;;;;;;128.73;35.15;;;9.00;99.90;;;;;;4958034;28;20096;-70
2023/01/02 09:29:10;;;;;;;100.18;34.78;;;9.00;99.90;;;;;;4961236;28;20069;-69
2023/01/02 09:31:37;;;;;;;89.50;27.92;;;9.00;99.90;;;;;;4961835;28;20031;-69
2023/01/02 09:34:02;;;;;;;90.43;26.15;;;8.90;99.90;;;;;;4958401;28;20577;-70
2023/01/02 09:36:28;;;;;;;93.85;27.67;;;8.80;99.90;;;;;;4957407;28;20046;-69
2023/01/02 09:38:56;;;;;;;100.05;27.02;;;8.80;99.90;;;;;;4958824;28;20104;-70
2023/01/02 09:41:34;;;;;;;104.07;27.25;;;8.70;99.90;;;;;;4957172;28;20028;-70
2023/01/02 09:44:02;;;;;;;94.90;27.05;;;8.70;99.90;;;;;;4960617;28;20062;-70
2023/01/02 09:46:42;;;;;;;78.70;25.60;;;8.60;99.90;;;;;;4957167;28;20019;-70
2023/01/02 09:49:13;;;;;;;85.15;25.17;;;8.50;99.90;;;;;;4954324;28;20031;-69
2023/01/02 09:51:39;;;;;;;78.70;27.40;;;8.50;99.90;;;;;;4972212;28;20398;-70
2023/01/02 09:54:13;;;;;;;103.95;29.75;;;8.50;99.90;;;;;;4974755;28;20035;-69
2023/01/02 09:56:42;;;;;;;131.73;36.10;;;8.40;99.90;;;;;;4955882;28;20099;-69
2023/01/02 09:59:30;;;;;;;140.23;31.25;;;8.30;99.90;;;;;;4954782;28;20023;-69
2023/01/02 10:02:05;;;;;;;165.43;31.17;;;8.30;99.90;;;;;;4972743;28;20093;-69
2023/01/02 10:04:54;;;;;;;129.95;29.83;;;8.30;99.90;;;;;;4974534;28;20103;-69
2023/01/02 10:07:32;;;;;;;149.50;33.47;;;8.30;99.90;;;;;;4974776;28;20030;-69
2023/01/02 10:10:41;;;;;;;145.27;34.58;;;8.30;99.90;;;;;;4974334;28;20097;-69
2023/01/02 10:13:17;;;;;;;99.78;32.90;;;8.20;99.90;;;;;;4952472;29;20448;-69
2023/01/02 10:15:49;;;;;;;97.32;32.92;;;8.30;99.90;;;;;;4973052;28;20031;-69
2023/01/02 10:18:30;;;;;;;84.20;31.02;;;8.30;99.90;;;;;;4974003;28;20102;-69
2023/01/02 10:21:02;;;;;;;70.60;28.15;;;8.30;99.90;;;;;;4966720;28;20056;-70
2023/01/02 10:23:36;;;;;;;63.00;24.92;;;8.40;99.90;;;;;;4959015;28;20043;-69
2023/01/02 10:26:12;;;;;;;55.97;23.30;;;8.30;99.90;;;;;;4956137;28;20043;-69
2023/01/02 10:29:08;;;;;;;50.72;21.27;;;8.40;99.90;;;;;;4956529;28;20043;-69
2023/01/02 10:31:40;;;;;;;40.60;17.67;;;8.40;99.90;;;;;;4956732;28;20031;-69
2023/01/02 10:34:15;;;;;;;31.65;14.75;;;8.40;99.90;;;;;;4956876;28;20031;-69
2023/01/02 10:36:43;;;;;;;26.20;12.70;;;8.40;99.90;;;;;;4955221;28;20072;-69
2023/01/02 10:39:15;;;;;;;14.15;7.55;;;8.40;99.90;;;;;;4958186;28;20109;-69
2023/01/02 10:41:43;;;;;;;14.80;6.75;;;8.30;99.90;;;;;;4956758;28;20558;-69
2023/01/02 10:44:40;;;;;;;11.25;5.85;;;8.20;99.90;;;;;;4958680;28;20046;-69
2023/01/02 10:47:19;;;;;;;10.07;4.78;;;8.10;99.90;;;;;;4955729;28;20051;-69
2023/01/02 10:49:45;;;;;;;8.90;4.70;;;8.10;99.90;;;;;;4955491;28;20502;-69
2023/01/02 10:52:33;;;;;;;9.88;4.95;;;8.10;99.90;;;;;;4960785;28;20075;-69
2023/01/02 10:54:59;;;;;;;8.93;4.57;;;8.10;99.90;;;;;;4958669;28;20027;-69
2023/01/02 10:57:49;;;;;;;15.60;5.07;;;8.10;99.90;;;;;;4973648;28;20035;-69
2023/01/02 11:00:28;;;;;;;10.35;5.43;;;8.10;99.90;;;;;;4972848;28;20027;-69
2023/01/02 11:02:58;;;;;;;8.85;5.05;;;8.20;99.90;;;;;;4973404;28;20031;-69
2023/01/02 11:05:28;;;;;;;10.82;6.28;;;8.20;99.90;;;;;;4972550;28;20034;-70
2023/01/02 11:07:54;;;;;;;8.55;5.25;;;8.20;99.90;;;;;;4972771;28;20035;-69
2023/01/02 11:10:28;;;;;;;11.55;6.55;;;8.20;99.90;;;;;;4973614;28;20081;-69
2023/01/02 11:12:54;;;;;;;10.10;5.82;;;8.20;99.90;;;;;;4976244;28;20089;-68
2023/01/02 11:15:29;;;;;;;24.85;15.60;;;8.20;99.90;;;;;;4977063;28;20019;-69
2023/01/02 11:17:56;;;;;;;7.93;5.60;;;8.10;99.90;;;;;;4977710;28;20027;-69
2023/01/02 11:20:34;;;;;;;15.95;6.13;;;8.10;99.90;;;;;;4977702;28;20031;-68
2023/01/02 11:23:02;;;;;;;11.95;7.70;;;8.20;99.90;;;;;;4977602;28;20141;-69
2023/01/02 11:25:35;;;;;;;17.25;9.18;;;8.10;99.90;;;;;;4977083;28;20544;-69
2023/01/02 11:28:02;;;;;;;20.67;10.55;;;8.10;99.90;;;;;;4977174;28;20035;-69
2023/01/02 11:30:35;;;;;;;20.65;10.02;;;8.00;99.90;;;;;;4977289;28;20118;-68
2023/01/02 11:33:06;;;;;;;15.50;7.47;;;8.00;99.90;;;;;;4977100;28;20031;-69
2023/01/02 11:35:44;;;;;;;14.43;7.68;;;8.00;99.90;;;;;;4977043;28;20047;-68
2023/01/02 11:38:21;;;;;;;22.45;8.73;;;7.90;99.90;;;;;;4977121;28;20393;-68
2023/01/02 11:40:56;;;;;;;11.10;5.80;;;8.00;99.90;;;;;;4966929;28;20024;-69
2023/01/02 11:46:25;;;;;;;17.08;8.40;;;7.90;99.90;;;;;;4957762;29;20031;-68
2023/01/02 11:48:54;;;;;;;15.00;8.15;;;8.00;99.90;;;;;;4957934;28;20443;-68
2023/01/02 11:51:20;;;;;;;32.08;10.50;;;7.90;99.90;;;;;;4966476;28;20035;-69
2023/01/02 11:53:50;;;;;;;32.08;14.15;;;7.90;99.90;;;;;;4976747;28;20394;-69
2023/01/02 11:56:27;;;;;;;29.52;11.07;;;7.70;99.90;;;;;;4973036;28;20026;-69
2023/01/02 11:59:21;;;;;;;38.80;12.05;;;7.60;99.90;;;;;;4958052;28;20526;-68
2023/01/02 12:02:00;;;;;;;29.30;9.43;;;7.50;99.90;;;;;;4957628;28;20497;-69
2023/01/02 12:04:26;;;;;;;34.85;7.80;;;7.50;99.90;;;;;;4970450;28;20542;-69
2023/01/02 12:07:07;;;;;;;27.23;7.13;;;7.50;99.90;;;;;;4968878;28;20157;-70
2023/01/02 12:09:50;;;;;;;22.77;4.30;;;7.40;99.90;;;;;;4962495;28;20031;-69
2023/01/02 12:12:48;;;;;;;17.08;3.03;;;7.40;99.90;;;;;;4976022;28;20031;-69
2023/01/02 12:15:21;;;;;;;24.65;3.25;;;7.40;99.90;;;;;;4976575;28;20027;-69
2023/01/02 12:18:00;;;;;;;22.17;4.38;;;7.40;99.90;;;;;;4976958;28;20038;-68
2023/01/02 12:20:40;;;;;;;26.80;4.13;;;7.30;99.90;;;;;;4976361;28;20023;-69
2023/01/02 12:23:31;;;;;;;17.63;4.63;;;7.30;99.90;;;;;;4975419;28;20110;-68
2023/01/02 12:26:19;;;;;;;25.38;4.43;;;7.40;99.90;;;;;;4975950;28;20085;-69
2023/01/02 12:28:55;;;;;;;16.23;3.90;;;7.40;99.90;;;;;;4976333;28;20051;-68
2023/01/02 12:31:46;;;;;;;32.28;5.50;;;7.40;99.90;;;;;;4974314;28;20038;-69
2023/01/02 12:34:22;;;;;;;21.27;4.25;;;7.40;99.90;;;;;;4976236;28;20038;-69
2023/01/02 12:37:08;;;;;;;19.15;4.13;;;7.40;99.90;;;;;;4974008;28;20085;-69
2023/01/02 12:39:49;;;;;;;13.95;2.80;;;7.30;99.90;;;;;;4976311;28;20026;-68
2023/01/02 12:42:36;;;;;;;21.98;3.35;;;7.30;99.90;;;;;;4963773;28;20444;-69
2023/01/02 12:45:08;;;;;;;14.38;3.88;;;7.40;99.90;;;;;;4956646;28;20395;-69
2023/01/02 12:47:43;;;;;;;13.23;2.65;;;7.40;99.90;;;;;;4961616;28;20108;-69
2023/01/02 12:50:41;;;;;;;23.48;2.75;;;7.30;99.90;;;;;;4962218;28;20030;-69
2023/01/02 12:53:19;;;;;;;8.15;2.55;;;7.30;99.90;;;;;;4974697;28;20050;-69
2023/01/02 12:55:53;;;;;;;24.77;4.00;;;7.40;99.90;;;;;;4962549;28;20483;-69
2023/01/02 12:58:28;;;;;;;32.40;6.25;;;7.40;99.90;;;;;;4956604;28;20034;-69
2023/01/02 13:01:11;;;;;;;25.83;8.77;;;7.40;99.90;;;;;;4956960;28;20030;-69
2023/01/02 13:04:16;;;;;;;25.50;10.27;;;7.40;99.90;;;;;;4960009;28;20060;-69
2023/01/02 13:07:07;;;;;;;12.43;3.30;;;7.40;99.90;;;;;;4975128;28;20545;-69